Main page
METAR-TAF:

METAR-TAF

Airports :

Chengdu, China

Chengdu Shuangliu International Airport

latitude: 30-40N, longitude: 104-01E, elevation: 508 m

Current weather observation

The report was made 44 minutes ago, at 11:00 UTC
Wind 6 kt from the West/Southwest
Temperature 26°C
Humidity 45%
Pressure 1015 hPa
Visibility 10 km or more
Few clouds at a height of 3000 ft, Cumulonimbus.
Scattered clouds at a height of 3000 ft

METAR: ZUUU 261100Z 24003MPS 9999 FEW030CB SCT030 26/13 Q1015 NOSIG

Time: 19:44 (11:44 UTC)

Forecast

The report was made 3 hours and 42 minutes ago, at 08:02 UTC
Forecast valid from 26 at 12 UTC to 27 at 12 UTC
Wind 6 kt from the Southwest
Visibility: 6000 m
Scattered clouds at a height of 5000 ft

TAF: ZUUU 260802Z 2612/2712 22003MPS 6000 SCT050 TX30/2707Z TN18/2623Z

Weather observations and forecasts of more than 4000 airports (METAR and TAF reports).

The available stations are represented by yellow and red dots on the map.

Hover mouse over dot to see the name of the station.

Then click to see weather observations and forecasts.

To change the map : click on the green buttons with a black cross to zoom in, on the green button with a dash to zoom out, or on the green arrows for adjacent maps.


METAR-TAF: